AirNav   Everest Fuels
 
 1149 users online  

NV40 Action Heliport
Las Vegas, Nevada, USA

GOING TO LAS VEGAS?


FAA INFORMATION EFFECTIVE 10 SEPTEMBER 2020

Location

FAA Identifier: NV40
Lat/Long: 35-57-00.0000N 115-10-00.0000W
35-57.000000N 115-10.000000W
35.9500000,-115.1666667
(estimated)
Elevation: 2460 ft. / 750 m (estimated)
Variation: 14E (1995)
From city: 8 miles S of LAS VEGAS, NV
Time zone: UTC -7 (UTC -8 during Standard Time)
Zip code: 89052

Heliport Operations

Heliport use: Private use. Permission required prior to landing
Activation date: 05/1997
Control tower: no
ARTCC: LOS ANGELES CENTER
FSS: RENO FLIGHT SERVICE STATION
Attendance: CONTINUOUS
Wind indicator: yes
Segmented circle: no

Heliport Communications

WX AWOS-3PT at HND (2.1 nm NE): 120.775 (702-614-4537)
WX ASOS at LAS (8 nm N): PHONE 725-600-7124
WX AWOS-3 at BVU (15 nm E): 118.475 (702-293-1532)
WX ASOS at VGT (16 nm N): 118.05 (702-648-6633)

Nearby radio navigation aids

VOR radial/distance  VOR name  Freq  Var
LASr167/7.8LAS VEGAS VORTAC116.9015E
BLDr244/15.0BOULDER CITY VORTAC116.7015E

Heliport Services

Runway Information

Helipad H1

Dimensions: 60 x 100 ft. / 18 x 30 m
Surface: concrete, in fair condition
Traffic pattern: leftleft

Heliport Ownership and Management from official FAA records

Ownership: Privately-owned
FAC LEASED TO AIR METHODS BY MARILYN LARSON, OWNER.
Owner: AIR METHODS CORP
7211 S. PEORIA
ENGLEWOOD, CO 80112
Phone (303) 792-7400
Manager: DEVON EISMA C/O MERCY AIR SERVICES
13000 LAS VEGAS BLVD SOUTH
LAS VEGAS, NV 89124
Phone (702) 286-6490

Heliport Operational Statistics

Aircraft based on the field: 3
Helicopters: 3
    

Additional Remarks

A52-H1 HELI HAS 18 FT BLDG, 100 YRDS EAST OF PAD.
NO GND VEHICLES OR EQPT INSIDE OPR AREA.
HENDERSON AIRPORT LCTD APPROXIMATELY 2 1/2 NM NORTHEAST.
NON STD AMBIENT FLOOD LGTS.
FOR CD CTC LAS VEGAS APCH AT 725-200-4432.

Instrument Procedures

There are no published instrument procedures at NV40.

Some nearby airports with instrument procedures:

KHND - Henderson Executive Airport (2 nm NE)
KLAS - Mc Carran International Airport (8 nm N)
KBVU - Boulder City Municipal Airport (15 nm E)
KVGT - North Las Vegas Airport (16 nm N)
KLSV - Nellis Air Force Base (18 nm N)
 
Loc | Ops | Rwys | IFR | FBO | Links
Com | Nav | Svcs | Stats | Notes
Area around NV40 (Action Heliport)
 
Road maps at: MapQuest Bing Google
 
Aerial photo
No photo
 
Sectional chart

 
Airport distance calculator
Flying to Action Heliport? Find the distance to fly.

From to NV40

Sunrise and sunset
Times for 25-Sep-2020
 Local
(UTC-7)
 Zulu
(UTC)
Morning civil twilight06:0713:07
Sunrise06:3313:33
Sunset18:3101:31
Evening civil twilight18:5701:57

Current date and time
Zulu (UTC)  26-Sep-2020 00:16:44
Local (UTC-7)  25-Sep-2020 17:16:44
 
METAR
KHND 
3nm NE 
252356Z 23007G15KT 10SM CLR 37/M01 A2988 RMK AO2 SLP103 T03671011 10378 20328 55015
KLAS 
8nm N 
252356Z VRB06KT 10SM CLR 37/M03 A2985 RMK AO2 SLP079 HZ AND FU VC ALQDS T03671028 10372 20317 56014
KBVU 
15nm E 
252355Z AUTO 14017KT 10SM CLR 36/M02 A2985 RMK AO2
KVGT 
15nm N 
252353Z 17009KT 10SM HZ CLR 38/M03 A2982 RMK AO2 SLP089 T03781028 10383 20311 56015
KLSV 
18nm NE 
252258Z AUTO 15008KT 10SM CLR 37/01 A2982 RMK AO2 SLP074 T03720005 $
TAF
KHND 
3nm NE 
251749Z 2518/2618 VRB05KT P6SM SKC FM252000 20012KT P6SM SKC FM261300 VRB06KT P6SM SKC
KLAS 
8nm N 
252052Z 2521/2624 19012G22KT P6SM SKC FM260300 20010KT P6SM SKC FM260900 VRB05KT P6SM SKC FM261200 29005KT P6SM SKC FM261800 08005KT P6SM SKC
KVGT 
15nm N 
251122Z 2512/2612 VRB05KT P6SM SKC FM251800 15006KT P6SM SKC FM252200 19010KT P6SM SKC FM260600 32005KT P6SM SKC
KLSV 
18nm NE 
251500Z 2515/2621 VRB06KT 9999 SKC QNH2990INS BECMG 2518/2519 15008KT 9999 SKC QNH2980INS TEMPO 2522/2602 16010G15KT BECMG 2602/2603 VRB06KT 9999 SKC QNH2988INS TX38/2523Z TN20/2613Z
NOTAMs
Click for the latest NOTAMs
NOTAMs are issued by the DoD/FAA and will open in a separate window not controlled by AirNav.

 

 
 

Would you like to see your business listed on this page?

 If your business provides an interesting product or service to pilots, flight crews, aircraft, or users of the Action Heliport, you should consider listing it here.  To start the listing process, click on the button below
 
Add a business
 

Other Pages about Action Heliport

Update a link
 
Copyright © AirNav, LLC. All rights reserved. Privacy Policy  Contact